Terminal Aerodrome Forecast
Issued by NWS Mt. Holly, NJ

Home | Current Version | Previous Version | Text Only | Print | Product List | Glossary On
Versions: 1 2 3 4 5 6 7 8 9 10 11 12 13 14 15 16 17 18 19 20 21 22 23 24 25 26 27 28 29 30 31 32 33 34 35 36 37 38 39 40 41 42 43 44
000
FTUS41 KPHI 180803 AAA
TAFABE
TAF AMD
KABE 180803Z 1808/1906 VRB03KT P6SM SCT250
      TEMPO 1808/1811 3SM BR
     FM181100 30004KT P6SM SCT250
     FM181600 28010G18KT P6SM SCT250
     FM190000 34008G16KT P6SM SCT250
     FM190400 02006KT P6SM SKC=

USA.gov is the U.S. government's official web portal to all federal, state and local government web resources and services.